sensor_id;sensor_type;location;lat;lon;timestamp;temperature;humidity
5007;DHT22;2522;50.972;11.046;2022-07-29T03:30:59;17.70;91.30
5007;DHT22;2522;50.972;11.046;2022-07-29T03:33:26;17.60;91.30
5007;DHT22;2522;50.972;11.046;2022-07-29T03:35:54;17.60;91.20
5007;DHT22;2522;50.972;11.046;2022-07-29T03:38:25;17.60;91.10
5007;DHT22;2522;50.972;11.046;2022-07-29T03:40:58;17.80;91.20
5007;DHT22;2522;50.972;11.046;2022-07-29T03:43:30;17.60;91.10
5007;DHT22;2522;50.972;11.046;2022-07-29T03:46:00;17.60;91.00
5007;DHT22;2522;50.972;11.046;2022-07-29T03:48:30;17.60;91.20
5007;DHT22;2522;50.972;11.046;2022-07-29T03:50:59;17.60;91.30
5007;DHT22;2522;50.972;11.046;2022-07-29T03:53:26;17.60;91.50
5007;DHT22;2522;50.972;11.046;2022-07-29T03:55:56;17.60;91.40
5007;DHT22;2522;50.972;11.046;2022-07-29T03:58:26;17.60;91.50
5007;DHT22;2522;50.972;11.046;2022-07-29T04:00:54;17.60;91.50
5007;DHT22;2522;50.972;11.046;2022-07-29T04:03:23;17.60;91.50
5007;DHT22;2522;50.972;11.046;2022-07-29T04:06:07;17.70;91.40
5007;DHT22;2522;50.972;11.046;2022-07-29T04:08:34;17.60;91.40
5007;DHT22;2522;50.972;11.046;2022-07-29T04:11:01;17.70;91.50
5007;DHT22;2522;50.972;11.046;2022-07-29T04:13:28;17.60;91.50
5007;DHT22;2522;50.972;11.046;2022-07-29T04:15:55;17.70;91.50
5007;DHT22;2522;50.972;11.046;2022-07-29T04:18:24;17.70;91.50
5007;DHT22;2522;50.972;11.046;2022-07-29T04:20:51;17.70;91.60
5007;DHT22;2522;50.972;11.046;2022-07-29T04:23:20;17.70;91.50
5007;DHT22;2522;50.972;11.046;2022-07-29T04:25:47;17.70;91.50
5007;DHT22;2522;50.972;11.046;2022-07-29T04:28:14;17.70;91.50
5007;DHT22;2522;50.972;11.046;2022-07-29T04:30:41;17.70;91.40
5007;DHT22;2522;50.972;11.046;2022-07-29T04:33:08;17.80;91.50
5007;DHT22;2522;50.972;11.046;2022-07-29T04:35:37;17.70;91.40
5007;DHT22;2522;50.972;11.046;2022-07-29T04:38:05;17.70;91.40
5007;DHT22;2522;50.972;11.046;2022-07-29T04:40:33;17.70;91.50
5007;DHT22;2522;50.972;11.046;2022-07-29T04:43:00;17.70;91.60
5007;DHT22;2522;50.972;11.046;2022-07-29T04:45:27;17.70;91.70
5007;DHT22;2522;50.972;11.046;2022-07-29T04:47:55;17.80;91.80
5007;DHT22;2522;50.972;11.046;2022-07-29T04:50:22;17.70;91.80
5007;DHT22;2522;50.972;11.046;2022-07-29T04:52:50;17.70;91.90
5007;DHT22;2522;50.972;11.046;2022-07-29T04:55:17;17.70;92.00
5007;DHT22;2522;50.972;11.046;2022-07-29T04:57:44;17.70;91.90
5007;DHT22;2522;50.972;11.046;2022-07-29T05:00:11;17.70;92.00
5007;DHT22;2522;50.972;11.046;2022-07-29T05:02:38;17.80;92.00
5007;DHT22;2522;50.972;11.046;2022-07-29T05:05:06;17.80;92.00
5007;DHT22;2522;50.972;11.046;2022-07-29T05:07:33;17.80;92.20
5007;DHT22;2522;50.972;11.046;2022-07-29T05:10:01;17.90;92.30
5007;DHT22;2522;50.972;11.046;2022-07-29T05:12:28;17.90;92.30
5007;DHT22;2522;50.972;11.046;2022-07-29T05:14:57;18.00;92.40
5007;DHT22;2522;50.972;11.046;2022-07-29T05:17:24;17.90;92.50
5007;DHT22;2522;50.972;11.046;2022-07-29T05:19:52;18.00;92.50
5007;DHT22;2522;50.972;11.046;2022-07-29T05:22:19;18.00;92.30
5007;DHT22;2522;50.972;11.046;2022-07-29T05:24:46;18.00;92.20
5007;DHT22;2522;50.972;11.046;2022-07-29T05:27:14;18.20;92.30
5007;DHT22;2522;50.972;11.046;2022-07-29T05:29:41;18.10;92.20
5007;DHT22;2522;50.972;11.046;2022-07-29T05:32:08;18.20;92.10
5007;DHT22;2522;50.972;11.046;2022-07-29T05:34:35;18.30;92.20
5007;DHT22;2522;50.972;11.046;2022-07-29T05:37:02;18.40;92.30
5007;DHT22;2522;50.972;11.046;2022-07-29T05:39:31;18.50;92.30
5007;DHT22;2522;50.972;11.046;2022-07-29T05:41:58;18.60;92.40
5007;DHT22;2522;50.972;11.046;2022-07-29T05:44:26;18.80;91.90
5007;DHT22;2522;50.972;11.046;2022-07-29T05:46:54;19.20;91.70
5007;DHT22;2522;50.972;11.046;2022-07-29T05:49:20;19.30;91.30
5007;DHT22;2522;50.972;11.046;2022-07-29T05:51:47;19.50;91.10
5007;DHT22;2522;50.972;11.046;2022-07-29T05:54:14;19.70;90.80
5007;DHT22;2522;50.972;11.046;2022-07-29T05:56:41;19.70;90.50
5007;DHT22;2522;50.972;11.046;2022-07-29T05:59:08;19.90;90.40
5007;DHT22;2522;50.972;11.046;2022-07-29T06:01:36;20.00;90.00
5007;DHT22;2522;50.972;11.046;2022-07-29T06:04:05;20.30;90.10
5007;DHT22;2522;50.972;11.046;2022-07-29T06:06:32;20.30;89.50
5007;DHT22;2522;50.972;11.046;2022-07-29T06:09:00;20.40;89.40
5007;DHT22;2522;50.972;11.046;2022-07-29T06:11:27;20.50;89.20
5007;DHT22;2522;50.972;11.046;2022-07-29T06:13:53;20.60;88.40
5007;DHT22;2522;50.972;11.046;2022-07-29T06:16:22;20.60;87.90
5007;DHT22;2522;50.972;11.046;2022-07-29T06:18:50;20.60;87.70
5007;DHT22;2522;50.972;11.046;2022-07-29T06:21:17;20.60;87.40
5007;DHT22;2522;50.972;11.046;2022-07-29T06:23:44;20.60;86.90
5007;DHT22;2522;50.972;11.046;2022-07-29T06:26:11;20.50;86.60
5007;DHT22;2522;50.972;11.046;2022-07-29T06:28:38;20.50;86.80
5007;DHT22;2522;50.972;11.046;2022-07-29T06:31:05;20.50;86.70
5007;DHT22;2522;50.972;11.046;2022-07-29T06:33:32;20.60;86.60
5007;DHT22;2522;50.972;11.046;2022-07-29T06:36:00;20.80;86.60
5007;DHT22;2522;50.972;11.046;2022-07-29T06:38:27;20.80;86.40
5007;DHT22;2522;50.972;11.046;2022-07-29T06:40:54;21.00;86.10
5007;DHT22;2522;50.972;11.046;2022-07-29T06:43:26;21.00;86.00
5007;DHT22;2522;50.972;11.046;2022-07-29T06:45:54;21.10;86.00
5007;DHT22;2522;50.972;11.046;2022-07-29T06:48:21;21.20;85.70
5007;DHT22;2522;50.972;11.046;2022-07-29T06:50:48;21.20;85.20
5007;DHT22;2522;50.972;11.046;2022-07-29T06:53:16;21.30;85.30
5007;DHT22;2522;50.972;11.046;2022-07-29T06:55:43;21.30;85.10
5007;DHT22;2522;50.972;11.046;2022-07-29T06:58:10;21.30;84.90
5007;DHT22;2522;50.972;11.046;2022-07-29T07:00:37;21.30;84.60
5007;DHT22;2522;50.972;11.046;2022-07-29T07:03:04;21.40;84.70
5007;DHT22;2522;50.972;11.046;2022-07-29T07:05:30;21.50;84.30
5007;DHT22;2522;50.972;11.046;2022-07-29T07:07:57;21.50;83.90
5007;DHT22;2522;50.972;11.046;2022-07-29T07:10:25;21.50;84.80
5007;DHT22;2522;50.972;11.046;2022-07-29T07:12:52;21.60;84.00
5007;DHT22;2522;50.972;11.046;2022-07-29T07:15:19;21.70;83.70
5007;DHT22;2522;50.972;11.046;2022-07-29T07:17:47;21.80;83.50
5007;DHT22;2522;50.972;11.046;2022-07-29T07:20:14;21.90;83.00
5007;DHT22;2522;50.972;11.046;2022-07-29T07:22:41;21.90;82.60
5007;DHT22;2522;50.972;11.046;2022-07-29T07:25:08;21.90;82.50
5007;DHT22;2522;50.972;11.046;2022-07-29T07:27:37;21.90;82.50
5007;DHT22;2522;50.972;11.046;2022-07-29T07:30:06;22.00;82.40
5007;DHT22;2522;50.972;11.046;2022-07-29T07:32:34;22.10;82.10
5007;DHT22;2522;50.972;11.046;2022-07-29T07:35:01;22.20;81.90
5007;DHT22;2522;50.972;11.046;2022-07-29T07:37:28;22.20;81.20
5007;DHT22;2522;50.972;11.046;2022-07-29T07:39:54;22.30;80.80
5007;DHT22;2522;50.972;11.046;2022-07-29T07:42:21;22.40;80.30
5007;DHT22;2522;50.972;11.046;2022-07-29T07:44:50;22.40;80.20
5007;DHT22;2522;50.972;11.046;2022-07-29T07:47:16;22.50;79.70
5007;DHT22;2522;50.972;11.046;2022-07-29T07:49:45;22.50;79.20
5007;DHT22;2522;50.972;11.046;2022-07-29T07:52:12;22.60;79.30
5007;DHT22;2522;50.972;11.046;2022-07-29T07:54:39;22.70;79.10
5007;DHT22;2522;50.972;11.046;2022-07-29T07:57:06;22.80;78.50
5007;DHT22;2522;50.972;11.046;2022-07-29T07:59:33;22.80;78.50
5007;DHT22;2522;50.972;11.046;2022-07-29T08:02:01;22.80;79.10
5007;DHT22;2522;50.972;11.046;2022-07-29T08:04:28;22.90;78.90
5007;DHT22;2522;50.972;11.046;2022-07-29T08:06:55;23.00;78.60
5007;DHT22;2522;50.972;11.046;2022-07-29T08:09:25;23.00;78.70
5007;DHT22;2522;50.972;11.046;2022-07-29T08:11:54;23.10;77.80
5007;DHT22;2522;50.972;11.046;2022-07-29T08:14:21;23.10;77.40
5007;DHT22;2522;50.972;11.046;2022-07-29T08:16:48;23.20;77.20
5007;DHT22;2522;50.972;11.046;2022-07-29T08:19:16;23.40;76.80
5007;DHT22;2522;50.972;11.046;2022-07-29T08:21:43;23.50;76.20
5007;DHT22;2522;50.972;11.046;2022-07-29T08:24:10;23.60;75.90
5007;DHT22;2522;50.972;11.046;2022-07-29T08:26:54;23.80;75.50
5007;DHT22;2522;50.972;11.046;2022-07-29T08:29:21;23.90;75.10
5007;DHT22;2522;50.972;11.046;2022-07-29T08:31:48;23.90;74.80
5007;DHT22;2522;50.972;11.046;2022-07-29T08:34:16;24.00;74.50
5007;DHT22;2522;50.972;11.046;2022-07-29T08:36:43;24.00;73.90
5007;DHT22;2522;50.972;11.046;2022-07-29T08:39:10;24.00;73.80
5007;DHT22;2522;50.972;11.046;2022-07-29T08:41:36;24.10;73.50
5007;DHT22;2522;50.972;11.046;2022-07-29T08:44:03;24.10;73.40
5007;DHT22;2522;50.972;11.046;2022-07-29T08:46:30;24.10;73.70
5007;DHT22;2522;50.972;11.046;2022-07-29T08:48:57;24.30;73.30
5007;DHT22;2522;50.972;11.046;2022-07-29T08:51:25;24.40;73.00
5007;DHT22;2522;50.972;11.046;2022-07-29T08:53:53;24.50;73.30
5007;DHT22;2522;50.972;11.046;2022-07-29T08:56:21;24.60;73.30
5007;DHT22;2522;50.972;11.046;2022-07-29T08:58:48;24.70;72.90
5007;DHT22;2522;50.972;11.046;2022-07-29T09:01:17;24.70;72.70
5007;DHT22;2522;50.972;11.046;2022-07-29T09:03:47;24.70;72.90
5007;DHT22;2522;50.972;11.046;2022-07-29T09:06:17;24.80;72.90
5007;DHT22;2522;50.972;11.046;2022-07-29T09:08:45;24.90;72.50
5007;DHT22;2522;50.972;11.046;2022-07-29T09:11:13;25.10;72.30
5007;DHT22;2522;50.972;11.046;2022-07-29T09:13:40;25.10;70.80
5007;DHT22;2522;50.972;11.046;2022-07-29T09:16:07;25.10;71.00
5007;DHT22;2522;50.972;11.046;2022-07-29T09:18:36;25.10;71.20
5007;DHT22;2522;50.972;11.046;2022-07-29T09:21:03;25.10;70.70
5007;DHT22;2522;50.972;11.046;2022-07-29T09:24:05;25.20;70.00
5007;DHT22;2522;50.972;11.046;2022-07-29T09:26:34;25.30;70.20
5007;DHT22;2522;50.972;11.046;2022-07-29T09:29:09;25.40;69.60
5007;DHT22;2522;50.972;11.046;2022-07-29T09:31:38;25.50;68.90
5007;DHT22;2522;50.972;11.046;2022-07-29T09:34:07;25.50;68.70
5007;DHT22;2522;50.972;11.046;2022-07-29T09:36:41;25.50;68.60
5007;DHT22;2522;50.972;11.046;2022-07-29T09:39:10;25.50;68.60
5007;DHT22;2522;50.972;11.046;2022-07-29T09:41:47;25.50;68.70
5007;DHT22;2522;50.972;11.046;2022-07-29T09:44:15;25.50;69.20
5007;DHT22;2522;50.972;11.046;2022-07-29T09:46:56;25.50;69.20
5007;DHT22;2522;50.972;11.046;2022-07-29T09:49:23;25.60;68.90
5007;DHT22;2522;50.972;11.046;2022-07-29T09:52:05;25.60;69.00
5007;DHT22;2522;50.972;11.046;2022-07-29T09:54:35;25.60;69.40
5007;DHT22;2522;50.972;11.046;2022-07-29T09:57:06;25.70;68.20
5007;DHT22;2522;50.972;11.046;2022-07-29T09:59:35;25.80;67.80
5007;DHT22;2522;50.972;11.046;2022-07-29T10:02:11;25.90;68.10
5007;DHT22;2522;50.972;11.046;2022-07-29T10:04:39;26.00;67.90
5007;DHT22;2522;50.972;11.046;2022-07-29T10:07:06;26.20;67.20
5007;DHT22;2522;50.972;11.046;2022-07-29T10:09:35;26.30;67.20
5007;DHT22;2522;50.972;11.046;2022-07-29T10:12:09;26.40;65.80
5007;DHT22;2522;50.972;11.046;2022-07-29T10:14:37;26.50;65.30
5007;DHT22;2522;50.972;11.046;2022-07-29T10:17:05;26.60;65.40
5007;DHT22;2522;50.972;11.046;2022-07-29T10:19:34;26.70;65.20
5007;DHT22;2522;50.972;11.046;2022-07-29T10:22:04;26.90;64.70
5007;DHT22;2522;50.972;11.046;2022-07-29T10:24:31;27.10;63.40
5007;DHT22;2522;50.972;11.046;2022-07-29T10:27:01;27.30;60.50
5007;DHT22;2522;50.972;11.046;2022-07-29T10:29:31;27.50;59.60
5007;DHT22;2522;50.972;11.046;2022-07-29T10:32:21;27.60;59.20
5007;DHT22;2522;50.972;11.046;2022-07-29T10:38:07;27.50;58.20
5007;DHT22;2522;50.972;11.046;2022-07-29T10:40:45;27.50;58.30
5007;DHT22;2522;50.972;11.046;2022-07-29T10:43:40;27.40;58.30
5007;DHT22;2522;50.972;11.046;2022-07-29T10:46:08;27.30;58.90
5007;DHT22;2522;50.972;11.046;2022-07-29T10:49:08;27.30;59.50
5007;DHT22;2522;50.972;11.046;2022-07-29T10:51:58;27.40;60.00
5007;DHT22;2522;50.972;11.046;2022-07-29T10:54:53;27.40;59.60
5007;DHT22;2522;50.972;11.046;2022-07-29T10:57:25;27.50;59.50
5007;DHT22;2522;50.972;11.046;2022-07-29T11:00:28;27.40;59.30
5007;DHT22;2522;50.972;11.046;2022-07-29T11:02:55;27.50;59.50
5007;DHT22;2522;50.972;11.046;2022-07-29T11:05:23;27.50;59.80
5007;DHT22;2522;50.972;11.046;2022-07-29T11:08:18;27.50;59.50
5007;DHT22;2522;50.972;11.046;2022-07-29T11:10:47;27.50;59.70
5007;DHT22;2522;50.972;11.046;2022-07-29T11:16:15;27.40;59.80
5007;DHT22;2522;50.972;11.046;2022-07-29T11:19:22;27.30;59.80
5007;DHT22;2522;50.972;11.046;2022-07-29T11:21:49;27.30;59.70
5007;DHT22;2522;50.972;11.046;2022-07-29T11:24:19;27.20;59.90
5007;DHT22;2522;50.972;11.046;2022-07-29T11:27:10;27.20;60.40
5007;DHT22;2522;50.972;11.046;2022-07-29T11:29:40;27.10;59.80
5007;DHT22;2522;50.972;11.046;2022-07-29T11:32:13;27.10;60.40
5007;DHT22;2522;50.972;11.046;2022-07-29T11:34:42;27.20;60.40
5007;DHT22;2522;50.972;11.046;2022-07-29T11:37:16;27.20;60.50
5007;DHT22;2522;50.972;11.046;2022-07-29T11:39:45;27.30;60.70
5007;DHT22;2522;50.972;11.046;2022-07-29T11:42:36;27.30;60.70
5007;DHT22;2522;50.972;11.046;2022-07-29T11:45:05;27.40;60.40
5007;DHT22;2522;50.972;11.046;2022-07-29T11:47:35;27.50;60.40
5007;DHT22;2522;50.972;11.046;2022-07-29T11:50:04;27.50;60.00
5007;DHT22;2522;50.972;11.046;2022-07-29T11:52:33;27.50;60.30
5007;DHT22;2522;50.972;11.046;2022-07-29T11:55:04;27.60;60.40
5007;DHT22;2522;50.972;11.046;2022-07-29T11:57:31;27.60;60.20
5007;DHT22;2522;50.972;11.046;2022-07-29T11:59:59;27.80;60.50
5007;DHT22;2522;50.972;11.046;2022-07-29T12:02:39;27.80;59.90
5007;DHT22;2522;50.972;11.046;2022-07-29T12:05:08;27.90;59.80
5007;DHT22;2522;50.972;11.046;2022-07-29T12:07:36;27.90;59.70
5007;DHT22;2522;50.972;11.046;2022-07-29T12:10:04;27.90;59.40
5007;DHT22;2522;50.972;11.046;2022-07-29T12:12:31;27.80;59.40
5007;DHT22;2522;50.972;11.046;2022-07-29T12:14:58;28.00;59.50
5007;DHT22;2522;50.972;11.046;2022-07-29T12:17:36;28.00;59.40
5007;DHT22;2522;50.972;11.046;2022-07-29T12:20:06;28.10;59.40
5007;DHT22;2522;50.972;11.046;2022-07-29T12:22:35;28.20;59.50
5007;DHT22;2522;50.972;11.046;2022-07-29T12:25:06;28.30;59.50
5007;DHT22;2522;50.972;11.046;2022-07-29T12:27:33;28.50;59.20
5007;DHT22;2522;50.972;11.046;2022-07-29T12:30:02;28.80;58.90
5007;DHT22;2522;50.972;11.046;2022-07-29T12:32:33;28.90;59.10
5007;DHT22;2522;50.972;11.046;2022-07-29T12:35:03;29.10;58.10
5007;DHT22;2522;50.972;11.046;2022-07-29T12:37:32;29.00;57.60
5007;DHT22;2522;50.972;11.046;2022-07-29T12:40:00;28.90;57.90
5007;DHT22;2522;50.972;11.046;2022-07-29T12:42:27;29.00;58.20
5007;DHT22;2522;50.972;11.046;2022-07-29T12:44:53;29.00;58.00
5007;DHT22;2522;50.972;11.046;2022-07-29T12:47:21;29.00;58.30
5007;DHT22;2522;50.972;11.046;2022-07-29T12:49:49;29.10;58.20
5007;DHT22;2522;50.972;11.046;2022-07-29T12:52:30;29.00;57.80
5007;DHT22;2522;50.972;11.046;2022-07-29T12:55:02;29.00;57.80
5007;DHT22;2522;50.972;11.046;2022-07-29T12:57:43;29.00;58.00
5007;DHT22;2522;50.972;11.046;2022-07-29T13:00:12;29.00;58.10
5007;DHT22;2522;50.972;11.046;2022-07-29T13:02:41;29.10;58.20
5007;DHT22;2522;50.972;11.046;2022-07-29T13:05:10;29.10;58.50
5007;DHT22;2522;50.972;11.046;2022-07-29T13:07:38;29.20;58.30
5007;DHT22;2522;50.972;11.046;2022-07-29T13:10:15;29.50;58.50
5007;DHT22;2522;50.972;11.046;2022-07-29T13:13:00;29.80;57.70
5007;DHT22;2522;50.972;11.046;2022-07-29T13:15:27;29.90;57.30
5007;DHT22;2522;50.972;11.046;2022-07-29T13:17:55;30.00;56.90
5007;DHT22;2522;50.972;11.046;2022-07-29T13:20:25;30.00;57.40
5007;DHT22;2522;50.972;11.046;2022-07-29T13:22:53;30.10;56.90
5007;DHT22;2522;50.972;11.046;2022-07-29T13:25:25;30.20;56.60
5007;DHT22;2522;50.972;11.046;2022-07-29T13:27:54;30.30;56.10
5007;DHT22;2522;50.972;11.046;2022-07-29T13:30:22;30.30;55.90
5007;DHT22;2522;50.972;11.046;2022-07-29T13:32:49;30.20;55.90
5007;DHT22;2522;50.972;11.046;2022-07-29T13:35:17;30.20;55.90
5007;DHT22;2522;50.972;11.046;2022-07-29T13:37:45;30.20;55.80
5007;DHT22;2522;50.972;11.046;2022-07-29T13:40:12;30.30;55.70
5007;DHT22;2522;50.972;11.046;2022-07-29T13:42:41;30.40;55.60
5007;DHT22;2522;50.972;11.046;2022-07-29T13:45:09;30.40;55.20
5007;DHT22;2522;50.972;11.046;2022-07-29T13:47:37;30.30;55.50
5007;DHT22;2522;50.972;11.046;2022-07-29T13:50:06;30.40;55.40
5007;DHT22;2522;50.972;11.046;2022-07-29T13:52:33;30.40;54.90
5007;DHT22;2522;50.972;11.046;2022-07-29T13:55:01;30.20;55.10
5007;DHT22;2522;50.972;11.046;2022-07-29T13:57:28;30.10;55.30
5007;DHT22;2522;50.972;11.046;2022-07-29T13:59:56;30.10;55.40
5007;DHT22;2522;50.972;11.046;2022-07-29T14:02:23;30.20;55.40
5007;DHT22;2522;50.972;11.046;2022-07-29T14:04:50;30.40;55.20
5007;DHT22;2522;50.972;11.046;2022-07-29T14:07:17;30.50;55.00
5007;DHT22;2522;50.972;11.046;2022-07-29T14:09:44;30.60;54.90
5007;DHT22;2522;50.972;11.046;2022-07-29T14:12:11;30.70;54.40
5007;DHT22;2522;50.972;11.046;2022-07-29T14:14:38;30.60;54.30
5007;DHT22;2522;50.972;11.046;2022-07-29T14:17:06;30.60;54.30
5007;DHT22;2522;50.972;11.046;2022-07-29T14:19:33;30.60;54.60
5007;DHT22;2522;50.972;11.046;2022-07-29T14:22:03;30.60;54.40
5007;DHT22;2522;50.972;11.046;2022-07-29T14:24:30;30.50;54.50
5007;DHT22;2522;50.972;11.046;2022-07-29T14:26:57;30.50;54.40
5007;DHT22;2522;50.972;11.046;2022-07-29T14:29:24;30.40;54.50
5007;DHT22;2522;50.972;11.046;2022-07-29T14:31:53;30.30;54.40
5007;DHT22;2522;50.972;11.046;2022-07-29T14:34:21;30.30;54.90
5007;DHT22;2522;50.972;11.046;2022-07-29T14:36:48;30.20;54.70
5007;DHT22;2522;50.972;11.046;2022-07-29T14:39:15;30.10;55.00
5007;DHT22;2522;50.972;11.046;2022-07-29T14:41:42;30.20;55.20
5007;DHT22;2522;50.972;11.046;2022-07-29T14:44:09;30.30;55.30
5007;DHT22;2522;50.972;11.046;2022-07-29T14:46:36;30.40;54.90
5007;DHT22;2522;50.972;11.046;2022-07-29T14:49:02;30.40;54.70
5007;DHT22;2522;50.972;11.046;2022-07-29T14:51:31;30.30;55.00
5007;DHT22;2522;50.972;11.046;2022-07-29T14:53:58;30.00;55.10
5007;DHT22;2522;50.972;11.046;2022-07-29T14:56:24;29.90;55.60
5007;DHT22;2522;50.972;11.046;2022-07-29T14:58:52;29.90;55.60
5007;DHT22;2522;50.972;11.046;2022-07-29T15:01:19;29.90;55.70
5007;DHT22;2522;50.972;11.046;2022-07-29T15:03:45;29.90;55.90
5007;DHT22;2522;50.972;11.046;2022-07-29T15:06:12;30.00;56.00
5007;DHT22;2522;50.972;11.046;2022-07-29T15:08:40;30.10;56.20
5007;DHT22;2522;50.972;11.046;2022-07-29T15:11:07;30.20;56.10
5007;DHT22;2522;50.972;11.046;2022-07-29T15:13:34;30.30;56.50
5007;DHT22;2522;50.972;11.046;2022-07-29T15:16:01;30.30;56.20
5007;DHT22;2522;50.972;11.046;2022-07-29T15:18:28;30.30;56.10
5007;DHT22;2522;50.972;11.046;2022-07-29T15:20:55;30.20;55.80
5007;DHT22;2522;50.972;11.046;2022-07-29T15:23:22;30.00;55.90
5007;DHT22;2522;50.972;11.046;2022-07-29T15:25:50;29.80;56.80
5007;DHT22;2522;50.972;11.046;2022-07-29T15:28:17;29.80;56.70
5007;DHT22;2522;50.972;11.046;2022-07-29T15:30:43;29.80;56.50
5007;DHT22;2522;50.972;11.046;2022-07-29T15:33:10;29.60;56.30
5007;DHT22;2522;50.972;11.046;2022-07-29T15:35:37;29.50;56.50
5007;DHT22;2522;50.972;11.046;2022-07-29T15:38:04;29.50;56.80
5007;DHT22;2522;50.972;11.046;2022-07-29T15:40:31;29.40;57.00
5007;DHT22;2522;50.972;11.046;2022-07-29T15:43:03;29.50;57.10
5007;DHT22;2522;50.972;11.046;2022-07-29T15:45:35;29.50;57.30
5007;DHT22;2522;50.972;11.046;2022-07-29T15:48:04;29.50;57.10
5007;DHT22;2522;50.972;11.046;2022-07-29T15:50:32;29.60;57.40
5007;DHT22;2522;50.972;11.046;2022-07-29T15:52:59;29.60;57.00
5007;DHT22;2522;50.972;11.046;2022-07-29T15:55:26;29.70;57.30
5007;DHT22;2522;50.972;11.046;2022-07-29T15:57:53;29.80;57.70
5007;DHT22;2522;50.972;11.046;2022-07-29T16:00:21;29.90;57.80
5007;DHT22;2522;50.972;11.046;2022-07-29T16:02:49;29.90;58.10
5007;DHT22;2522;50.972;11.046;2022-07-29T16:05:16;29.80;58.90
5007;DHT22;2522;50.972;11.046;2022-07-29T16:07:43;29.80;59.60
5007;DHT22;2522;50.972;11.046;2022-07-29T16:10:10;29.80;60.00
5007;DHT22;2522;50.972;11.046;2022-07-29T16:12:37;29.70;60.10
5007;DHT22;2522;50.972;11.046;2022-07-29T16:15:04;29.70;60.40
5007;DHT22;2522;50.972;11.046;2022-07-29T16:17:33;29.60;60.80
5007;DHT22;2522;50.972;11.046;2022-07-29T16:19:59;29.60;60.80
5007;DHT22;2522;50.972;11.046;2022-07-29T16:22:26;29.50;60.90
5007;DHT22;2522;50.972;11.046;2022-07-29T16:24:53;29.40;61.10
5007;DHT22;2522;50.972;11.046;2022-07-29T16:27:20;29.40;61.50
5007;DHT22;2522;50.972;11.046;2022-07-29T16:29:51;29.30;62.50
5007;DHT22;2522;50.972;11.046;2022-07-29T16:32:21;29.20;62.00
5007;DHT22;2522;50.972;11.046;2022-07-29T16:34:49;29.10;62.50
5007;DHT22;2522;50.972;11.046;2022-07-29T16:37:16;29.00;62.90
5007;DHT22;2522;50.972;11.046;2022-07-29T16:39:43;28.90;63.30
5007;DHT22;2522;50.972;11.046;2022-07-29T16:42:10;28.80;63.60
5007;DHT22;2522;50.972;11.046;2022-07-29T16:44:36;28.70;63.80
5007;DHT22;2522;50.972;11.046;2022-07-29T16:47:03;28.70;63.90
5007;DHT22;2522;50.972;11.046;2022-07-29T16:49:30;28.60;64.20
5007;DHT22;2522;50.972;11.046;2022-07-29T16:51:58;28.50;64.30
5007;DHT22;2522;50.972;11.046;2022-07-29T16:54:25;28.50;64.60
5007;DHT22;2522;50.972;11.046;2022-07-29T16:56:55;28.40;64.90
5007;DHT22;2522;50.972;11.046;2022-07-29T16:59:24;28.30;64.80
5007;DHT22;2522;50.972;11.046;2022-07-29T17:01:51;28.30;65.10
5007;DHT22;2522;50.972;11.046;2022-07-29T17:04:20;28.20;65.10
5007;DHT22;2522;50.972;11.046;2022-07-29T17:06:47;28.10;65.10
5007;DHT22;2522;50.972;11.046;2022-07-29T17:09:16;28.10;65.20
5007;DHT22;2522;50.972;11.046;2022-07-29T17:11:43;28.00;65.50
5007;DHT22;2522;50.972;11.046;2022-07-29T17:14:09;27.90;66.00
5007;DHT22;2522;50.972;11.046;2022-07-29T17:16:36;27.90;66.30
5007;DHT22;2522;50.972;11.046;2022-07-29T17:19:03;27.80;66.40
5007;DHT22;2522;50.972;11.046;2022-07-29T17:21:32;27.70;66.60
5007;DHT22;2522;50.972;11.046;2022-07-29T17:23:58;27.70;66.50
5007;DHT22;2522;50.972;11.046;2022-07-29T17:26:27;27.70;66.90
5007;DHT22;2522;50.972;11.046;2022-07-29T17:28:53;27.60;67.10
5007;DHT22;2522;50.972;11.046;2022-07-29T17:31:20;27.60;67.10
5007;DHT22;2522;50.972;11.046;2022-07-29T17:33:47;27.50;67.20
5007;DHT22;2522;50.972;11.046;2022-07-29T17:36:14;27.50;67.50
5007;DHT22;2522;50.972;11.046;2022-07-29T17:38:52;27.40;67.40
5007;DHT22;2522;50.972;11.046;2022-07-29T17:41:20;27.40;67.40
5007;DHT22;2522;50.972;11.046;2022-07-29T17:43:49;27.30;67.40
5007;DHT22;2522;50.972;11.046;2022-07-29T17:46:17;27.30;67.90
5007;DHT22;2522;50.972;11.046;2022-07-29T17:48:44;27.30;67.80
5007;DHT22;2522;50.972;11.046;2022-07-29T17:51:11;27.20;67.90
5007;DHT22;2522;50.972;11.046;2022-07-29T17:53:38;27.20;68.10
5007;DHT22;2522;50.972;11.046;2022-07-29T17:56:05;27.20;68.10
5007;DHT22;2522;50.972;11.046;2022-07-29T17:58:32;27.10;68.20
5007;DHT22;2522;50.972;11.046;2022-07-29T18:01:00;27.10;68.30
5007;DHT22;2522;50.972;11.046;2022-07-29T18:03:27;27.00;68.20
5007;DHT22;2522;50.972;11.046;2022-07-29T18:05:54;27.00;68.40
5007;DHT22;2522;50.972;11.046;2022-07-29T18:08:21;26.90;68.40
5007;DHT22;2522;50.972;11.046;2022-07-29T18:10:49;26.90;68.40
5007;DHT22;2522;50.972;11.046;2022-07-29T18:13:16;26.80;68.60
5007;DHT22;2522;50.972;11.046;2022-07-29T18:15:44;26.70;68.80
5007;DHT22;2522;50.972;11.046;2022-07-29T18:18:13;26.70;69.30
5007;DHT22;2522;50.972;11.046;2022-07-29T18:20:40;26.60;69.60
5007;DHT22;2522;50.972;11.046;2022-07-29T18:23:08;26.60;69.70
5007;DHT22;2522;50.972;11.046;2022-07-29T18:25:34;26.50;69.60
5007;DHT22;2522;50.972;11.046;2022-07-29T18:28:01;26.40;69.90
5007;DHT22;2522;50.972;11.046;2022-07-29T18:30:42;26.40;70.00
5007;DHT22;2522;50.972;11.046;2022-07-29T18:33:12;26.30;70.20
5007;DHT22;2522;50.972;11.046;2022-07-29T18:35:41;26.30;70.60
5007;DHT22;2522;50.972;11.046;2022-07-29T18:38:08;26.20;70.70
5007;DHT22;2522;50.972;11.046;2022-07-29T18:40:35;26.10;70.60
5007;DHT22;2522;50.972;11.046;2022-07-29T18:43:04;26.10;70.50
5007;DHT22;2522;50.972;11.046;2022-07-29T18:45:31;26.00;70.70
5007;DHT22;2522;50.972;11.046;2022-07-29T18:47:58;25.90;70.90
5007;DHT22;2522;50.972;11.046;2022-07-29T18:50:26;25.80;71.50
5007;DHT22;2522;50.972;11.046;2022-07-29T18:52:53;25.70;72.30
5007;DHT22;2522;50.972;11.046;2022-07-29T18:55:22;25.60;73.10
5007;DHT22;2522;50.972;11.046;2022-07-29T18:57:49;25.40;74.30
5007;DHT22;2522;50.972;11.046;2022-07-29T19:00:16;25.20;75.30
5007;DHT22;2522;50.972;11.046;2022-07-29T19:02:43;25.10;76.80
5007;DHT22;2522;50.972;11.046;2022-07-29T19:05:10;24.90;79.20
5007;DHT22;2522;50.972;11.046;2022-07-29T19:07:38;24.80;81.40
5007;DHT22;2522;50.972;11.046;2022-07-29T19:10:06;24.60;84.70
5007;DHT22;2522;50.972;11.046;2022-07-29T19:12:33;24.40;86.10
5007;DHT22;2522;50.972;11.046;2022-07-29T19:15:00;24.20;88.40
5007;DHT22;2522;50.972;11.046;2022-07-29T19:17:27;23.90;91.20
5007;DHT22;2522;50.972;11.046;2022-07-29T19:19:54;23.70;92.60
5007;DHT22;2522;50.972;11.046;2022-07-29T19:22:21;23.50;93.50
5007;DHT22;2522;50.972;11.046;2022-07-29T19:24:49;23.30;94.90
5007;DHT22;2522;50.972;11.046;2022-07-29T19:27:16;23.10;96.00
5007;DHT22;2522;50.972;11.046;2022-07-29T19:29:43;22.90;97.00
5007;DHT22;2522;50.972;11.046;2022-07-29T19:32:10;22.70;97.80